Time;durP1;ratioP1;P1;durP2;ratioP2;P2;SDS_P1;SDS_P2;PMS_P1;PMS_P2;Temp;Humidity;BMP_temperature;BMP_pressure;BME280_temperature;BME280_humidity;BME280_pressure;Samples;Min_cycle;Max_cycle;Signal;HPM_P1;HPM_P2
2022/02/24 00:00:14;;;;;;;31.70;13.37;;;;;;;14.57;46.62;100685.09;5040803;28;20045;-81
2022/02/24 00:02:41;;;;;;;30.38;11.70;;;;;;;14.42;46.61;100672.06;5043327;28;20026;-81
2022/02/24 00:05:09;;;;;;;23.40;10.67;;;;;;;14.43;47.09;100680.19;5051582;28;20045;-80
2022/02/24 00:07:36;;;;;;;25.47;11.37;;;;;;;14.57;47.30;100691.53;5041384;28;20037;-80
2022/02/24 00:10:05;;;;;;;33.53;12.20;;;;;;;14.46;47.41;100664.69;5040878;28;20041;-82
2022/02/24 00:12:32;;;;;;;27.90;12.53;;;;;;;14.48;47.26;100665.22;5024757;28;20050;-80
2022/02/24 00:14:59;;;;;;;28.30;11.80;;;;;;;14.60;47.44;100690.09;5031450;28;20290;-81
2022/02/24 00:17:26;;;;;;;21.50;10.13;;;;;;;14.59;47.69;100696.84;5041268;28;20037;-81
2022/02/24 00:19:56;;;;;;;33.47;11.37;;;;;;;14.61;47.78;100701.03;5045212;28;20044;-80
2022/02/24 00:22:23;;;;;;;21.45;10.02;;;;;;;14.48;47.65;100670.00;5037191;28;20042;-82
2022/02/24 00:24:50;;;;;;;26.80;11.37;;;;;;;14.57;47.94;100666.25;5040819;28;20057;-80
2022/02/24 00:27:18;;;;;;;32.77;12.47;;;;;;;14.64;48.05;100671.50;5034501;28;20061;-81
2022/02/24 00:29:45;;;;;;;34.77;10.30;;;;;;;14.59;48.36;100663.94;5044684;28;20046;-79
2022/02/24 00:32:12;;;;;;;27.47;10.13;;;;;;;14.35;48.58;100632.25;5041321;28;20040;-81
2022/02/24 00:34:39;;;;;;;21.27;10.00;;;;;;;14.52;49.16;100673.91;5040434;28;20030;-79
2022/02/24 00:37:08;;;;;;;24.60;9.97;;;;;;;14.51;49.43;100675.06;5033133;28;20086;-79
2022/02/24 00:39:35;;;;;;;23.50;10.73;;;;;;;14.40;49.31;100663.09;5048875;28;20283;-78
2022/02/24 00:42:02;;;;;;;26.70;10.70;;;;;;;14.57;49.53;100685.91;5025768;28;20050;-80
2022/02/24 00:44:29;;;;;;;31.67;12.40;;;;;;;14.44;49.16;100650.94;5011152;28;20088;-80
2022/02/24 00:46:56;;;;;;;31.90;11.93;;;;;;;14.62;49.49;100668.13;5014550;28;20050;-80
2022/02/24 00:49:23;;;;;;;24.33;9.33;;;;;;;14.60;49.49;100671.25;5025728;28;20054;-80
2022/02/24 00:51:51;;;;;;;31.13;10.27;;;;;;;14.60;49.65;100656.38;5031242;28;20510;-79
2022/02/24 00:54:18;;;;;;;29.43;10.00;;;;;;;14.60;49.92;100662.00;5006333;28;20581;-80
2022/02/24 00:56:45;;;;;;;27.40;10.50;;;;;;;14.61;50.00;100658.03;5009230;28;20054;-80
2022/02/24 00:59:14;;;;;;;30.83;10.40;;;;;;;14.59;49.98;100660.31;5016916;28;20116;-79
2022/02/24 01:01:42;;;;;;;22.63;10.43;;;;;;;14.41;50.05;100626.25;4990398;28;20072;-81
2022/02/24 01:04:09;;;;;;;25.70;10.40;;;;;;;14.52;49.95;100649.44;5015084;28;20137;-80
2022/02/24 01:06:36;;;;;;;26.90;9.47;;;;;;;14.34;50.24;100611.78;5010365;28;20058;-80
2022/02/24 01:09:03;;;;;;;21.57;9.57;;;;;;;14.17;50.89;100603.88;5006219;28;20069;-80
2022/02/24 01:11:30;;;;;;;25.03;9.20;;;;;;;14.26;51.13;100643.38;5006044;28;20151;-79
2022/02/24 01:13:57;;;;;;;27.40;10.43;;;;;;;14.04;51.80;100640.31;5005719;28;20507;-79
2022/02/24 01:16:26;;;;;;;19.00;10.13;;;;;;;13.91;51.99;100633.44;5014521;28;20050;-78
2022/02/24 01:18:53;;;;;;;23.37;10.90;;;;;;;13.86;51.99;100636.34;5046607;28;20064;-79
2022/02/24 01:21:20;;;;;;;27.50;12.13;;;;;;;13.99;51.29;100630.81;5047752;28;20065;-78
2022/02/24 01:23:47;;;;;;;33.03;10.83;;;;;;;13.96;51.09;100614.56;5031737;28;20085;-80
2022/02/24 01:26:14;;;;;;;24.10;10.47;;;;;;;13.77;51.05;100605.28;5032450;28;20061;-81
2022/02/24 01:28:41;;;;;;;15.83;9.00;;;;;;;13.76;51.22;100634.50;5029539;28;20041;-80
2022/02/24 01:31:08;;;;;;;20.83;10.27;;;;;;;13.42;51.91;100598.16;5018808;28;20439;-80
2022/02/24 01:33:35;;;;;;;20.27;11.13;;;;;;;13.45;52.25;100632.03;5020693;28;20125;-80
2022/02/24 01:36:02;;;;;;;27.50;11.53;;;;;;;13.48;52.30;100634.25;5012728;28;20555;-79
2022/02/24 01:38:28;;;;;;;26.50;10.93;;;;;;;13.42;52.49;100640.22;5016877;28;20069;-79
2022/02/24 01:40:56;;;;;;;17.90;8.80;;;;;;;13.04;53.29;100598.81;5015885;28;20141;-79
2022/02/24 01:43:25;;;;;;;21.13;8.20;;;;;;;13.18;54.21;100642.97;5015372;28;20054;-80
2022/02/24 01:45:53;;;;;;;15.53;6.97;;;;;;;13.13;53.84;100635.47;5008821;28;20061;-80
2022/02/24 01:48:20;;;;;;;30.30;12.53;;;;;;;13.30;53.73;100651.88;5029437;28;20053;-80
2022/02/24 01:50:46;;;;;;;22.13;9.80;;;;;;;12.83;53.77;100558.09;5013918;28;20042;-80
2022/02/24 01:53:15;;;;;;;19.33;10.47;;;;;;;13.07;53.65;100590.94;5015031;28;20108;-78
2022/02/24 01:55:42;;;;;;;27.70;10.50;;;;;;;13.20;53.26;100619.13;5015123;28;20045;-79
2022/02/24 01:58:09;;;;;;;18.50;7.70;;;;;;;13.33;53.44;100640.03;5010458;28;20110;-78
2022/02/24 02:00:37;;;;;;;22.80;10.67;;;;;;;13.20;53.96;100637.91;5011509;28;20133;-79
2022/02/24 02:03:04;;;;;;;19.33;9.53;;;;;;;13.09;54.19;100634.34;5007827;28;20054;-78
2022/02/24 02:05:32;;;;;;;25.20;9.40;;;;;;;12.75;54.42;100604.44;5014937;28;20085;-79
2022/02/24 02:07:59;;;;;;;24.73;10.90;;;;;;;12.89;54.31;100641.00;5015361;28;20077;-78
2022/02/24 02:10:26;;;;;;;18.50;7.37;;;;;;;12.75;54.35;100635.25;5020576;28;20057;-79
2022/02/24 02:12:54;;;;;;;21.43;9.53;;;;;;;12.49;54.39;100584.19;4992817;28;20137;-80
2022/02/24 02:15:22;;;;;;;22.93;9.63;;;;;;;12.77;54.26;100635.78;5008413;28;20050;-79
2022/02/24 02:17:50;;;;;;;18.20;9.50;;;;;;;12.42;53.84;100575.28;5012961;28;20129;-80
2022/02/24 02:20:19;;;;;;;52.20;9.20;;;;;;;12.49;53.80;100612.19;5014639;28;20140;-79
2022/02/24 02:22:52;;;;;;;13.95;7.57;;;;;;;12.49;53.86;100620.59;5013546;28;20049;-79
2022/02/24 02:25:22;;;;;;;14.47;6.67;;;;;;;12.31;54.27;100613.72;5015005;28;20506;-79
2022/02/24 02:27:51;;;;;;;19.80;11.63;;;;;;;12.47;53.48;100628.44;5016737;28;20065;-79
2022/02/24 02:30:20;;;;;;;11.13;6.70;;;;;;;12.45;53.54;100627.09;5022232;28;20053;-80
2022/02/24 02:32:48;;;;;;;11.37;6.27;;;;;;;12.12;53.85;100579.13;5021553;28;20050;-78
2022/02/24 02:35:15;;;;;;;21.90;5.93;;;;;;;12.16;53.67;100573.78;5019633;28;20113;-79
2022/02/24 02:37:42;;;;;;;15.77;7.17;;;;;;;12.25;54.12;100611.25;5026282;28;20392;-78
2022/02/24 02:40:10;;;;;;;14.73;7.60;;;;;;;11.93;54.32;100572.53;5029253;28;20151;-78
2022/02/24 02:42:37;;;;;;;12.97;6.17;;;;;;;12.00;54.51;100587.91;5019361;28;20061;-79
2022/02/24 02:45:06;;;;;;;8.23;5.57;;;;;;;12.00;54.69;100599.09;5026778;28;20050;-78
2022/02/24 02:47:33;;;;;;;8.63;5.07;;;;;;;11.97;54.55;100605.28;5050313;28;20045;-80
2022/02/24 02:50:00;;;;;;;14.30;6.87;;;;;;;11.94;54.62;100607.81;5032581;28;20097;-79
2022/02/24 02:52:27;;;;;;;17.27;8.90;;;;;;;12.00;54.62;100607.50;5017036;28;20069;-80
2022/02/24 02:55:08;;;;;;;18.43;9.40;;;;;;;11.94;54.45;100580.66;5009053;28;20074;-78
2022/02/24 02:57:37;;;;;;;10.40;5.97;;;;;;;12.13;54.03;100599.56;5011803;28;20084;-79
2022/02/24 03:00:12;;;;;;;16.70;8.37;;;;;;;12.11;53.74;100585.03;5018350;28;20109;-78
2022/02/24 03:02:40;;;;;;;29.00;12.20;;;;;;;11.95;53.75;100548.75;5036637;28;20077;-80
2022/02/24 03:05:08;;;;;;;21.93;11.43;;;;;;;12.47;52.87;100594.00;5032781;28;20054;-80
2022/02/24 03:07:35;;;;;;;19.43;10.23;;;;;;;12.56;52.52;100587.47;5011827;28;20053;-79
2022/02/24 03:10:07;;;;;;;21.33;9.80;;;;;;;12.54;52.33;100572.91;5022825;28;20050;-79
2022/02/24 03:12:36;;;;;;;15.40;10.17;;;;;;;12.70;52.27;100586.81;5025999;28;20045;-79
2022/02/24 03:15:06;;;;;;;19.90;10.27;;;;;;;12.73;51.87;100586.22;5013932;28;20082;-79
2022/02/24 03:17:33;;;;;;;19.27;10.75;;;;;;;12.60;51.79;100564.50;5026343;28;20046;-80
2022/02/24 03:19:59;;;;;;;26.67;11.90;;;;;;;12.75;51.69;100584.81;5017655;28;20121;-79
2022/02/24 03:22:27;;;;;;;23.10;11.17;;;;;;;12.74;50.81;100546.69;5007313;28;20125;-79
2022/02/24 03:24:53;;;;;;;24.20;12.30;;;;;;;13.17;50.60;100608.50;5015953;28;20130;-79
2022/02/24 03:27:20;;;;;;;23.43;12.83;;;;;;;13.26;50.56;100619.91;5032885;28;20180;-79
2022/02/24 03:29:47;;;;;;;26.27;13.10;;;;;;;13.15;50.42;100615.53;5019092;28;20050;-78
2022/02/24 03:32:14;;;;;;;20.10;11.60;;;;;;;13.27;50.48;100641.25;5000743;28;20093;-79
2022/02/24 03:34:41;;;;;;;27.47;12.40;;;;;;;13.25;50.41;100623.84;5010677;28;20506;-79
2022/02/24 03:37:08;;;;;;;31.50;13.03;;;;;;;13.13;50.43;100615.81;5016498;28;20049;-79
2022/02/24 03:39:35;;;;;;;22.47;12.50;;;;;;;12.97;50.66;100615.13;5014313;28;20095;-79
2022/02/24 03:42:03;;;;;;;25.87;13.40;;;;;;;12.99;50.61;100618.50;5011361;28;20474;-79
2022/02/24 03:44:30;;;;;;;26.53;14.13;;;;;;;13.02;50.59;100629.13;5023913;28;20089;-79
2022/02/24 03:46:58;;;;;;;28.83;14.53;;;;;;;12.99;50.57;100612.03;5018066;28;20556;-79
2022/02/24 03:49:44;;;;;;;33.17;16.53;;;;;;;13.02;50.80;100619.84;4993324;28;20501;-79
2022/02/24 03:52:11;;;;;;;52.37;23.53;;;;;;;13.01;50.70;100609.78;5016893;28;20096;-79
2022/02/24 03:54:37;;;;;;;27.57;16.80;;;;;;;12.98;50.93;100599.16;5014138;28;20137;-80
2022/02/24 03:57:04;;;;;;;32.23;13.17;;;;;;;12.86;50.81;100579.94;5014992;28;20046;-79
2022/02/24 03:59:31;;;;;;;26.43;13.37;;;;;;;12.94;50.69;100600.88;5009672;28;20081;-78
2022/02/24 04:02:01;;;;;;;32.97;15.02;;;;;;;12.79;50.85;100593.47;5013818;28;20451;-78
2022/02/24 04:04:28;;;;;;;23.50;13.07;;;;;;;12.68;51.45;100600.25;4999763;28;20054;-79
2022/02/24 04:06:55;;;;;;;27.33;13.40;;;;;;;12.63;51.43;100594.72;5004875;28;20141;-80
2022/02/24 04:09:22;;;;;;;27.13;12.97;;;;;;;12.30;51.91;100566.41;5015430;28;20104;-79
2022/02/24 04:11:49;;;;;;;29.07;12.30;;;;;;;12.38;52.29;100602.22;5015244;28;20042;-78
2022/02/24 04:14:16;;;;;;;31.10;11.97;;;;;;;12.30;51.99;100594.41;5016780;28;20549;-78
2022/02/24 04:16:43;;;;;;;21.07;11.17;;;;;;;12.43;51.96;100607.75;5002053;28;20090;-78
2022/02/24 04:19:11;;;;;;;19.07;10.63;;;;;;;12.35;51.98;100591.59;5015575;28;20449;-78
2022/02/24 04:21:42;;;;;;;18.80;9.73;;;;;;;12.35;52.29;100602.78;5015932;28;20046;-79
2022/02/24 04:24:09;;;;;;;18.57;9.80;;;;;;;12.32;52.34;100597.75;5014608;28;20049;-80
2022/02/24 04:26:36;;;;;;;16.27;9.20;;;;;;;12.11;52.26;100557.06;5018684;28;20057;-77
2022/02/24 04:29:03;;;;;;;26.47;10.67;;;;;;;12.10;52.01;100561.78;5013066;28;20502;-79
2022/02/24 04:31:30;;;;;;;16.73;9.10;;;;;;;12.05;52.12;100548.66;5010795;28;20046;-79
2022/02/24 04:33:57;;;;;;;20.43;9.87;;;;;;;12.28;52.31;100603.09;5008957;28;20052;-79
2022/02/24 04:36:24;;;;;;;16.10;8.80;;;;;;;12.41;51.69;100612.81;5006928;28;20053;-78
2022/02/24 04:38:51;;;;;;;15.43;8.30;;;;;;;12.26;51.58;100576.53;4998296;28;20050;-81
2022/02/24 04:41:18;;;;;;;14.93;7.50;;;;;;;12.43;51.47;100604.94;5016037;28;20058;-79
2022/02/24 04:43:45;;;;;;;13.00;7.40;;;;;;;12.24;51.95;100596.44;5013205;28;20391;-79
2022/02/24 04:46:14;;;;;;;15.80;7.93;;;;;;;12.16;51.82;100582.19;5008271;28;20056;-80
2022/02/24 04:48:41;;;;;;;20.23;8.60;;;;;;;12.25;51.92;100614.06;5016468;28;20050;-79
2022/02/24 04:51:08;;;;;;;13.53;8.10;;;;;;;12.31;51.84;100624.09;5022709;28;20061;-79
2022/02/24 04:53:35;;;;;;;16.17;8.03;;;;;;;12.37;51.49;100616.47;5031255;28;20498;-78
2022/02/24 04:56:02;;;;;;;21.83;8.93;;;;;;;12.40;51.26;100613.09;5007148;28;20046;-79
2022/02/24 04:58:29;;;;;;;17.33;8.60;;;;;;;12.47;51.00;100594.81;5013398;28;20050;-78
2022/02/24 05:00:56;;;;;;;17.87;8.47;;;;;;;12.52;51.06;100599.56;5013421;28;20061;-78
2022/02/24 05:03:23;;;;;;;17.33;8.53;;;;;;;12.56;50.89;100601.50;4998338;28;20046;-79
2022/02/24 05:05:50;;;;;;;17.10;8.20;;;;;;;12.49;50.68;100592.59;5018608;28;20050;-79
2022/02/24 05:08:18;;;;;;;19.47;8.80;;;;;;;12.50;50.64;100559.81;5011793;28;20105;-80
2022/02/24 05:10:46;;;;;;;17.00;9.07;;;;;;;12.74;50.51;100599.09;5014148;28;20054;-78
2022/02/24 05:13:13;;;;;;;20.87;10.00;;;;;;;12.61;50.31;100581.00;5016174;28;20049;-77
2022/02/24 05:15:41;;;;;;;20.33;9.70;;;;;;;12.77;50.43;100618.13;5008943;28;20058;-78
2022/02/24 05:18:09;;;;;;;21.13;9.27;;;;;;;12.56;50.51;100597.84;5011645;28;20085;-80
2022/02/24 05:20:36;;;;;;;21.47;11.10;;;;;;;12.63;50.79;100614.34;5002620;28;20046;-79
2022/02/24 05:23:03;;;;;;;24.80;12.00;;;;;;;12.65;50.89;100629.72;5013234;28;20052;-79
2022/02/24 05:25:35;;;;;;;23.33;11.93;;;;;;;12.47;51.05;100591.19;5009002;28;20077;-79
2022/02/24 05:28:07;;;;;;;27.33;11.80;;;;;;;12.57;50.77;100611.56;5010604;28;20392;-78
2022/02/24 05:30:34;;;;;;;22.00;11.47;;;;;;;12.23;51.04;100566.72;5020275;28;20057;-78
2022/02/24 05:33:01;;;;;;;22.77;11.10;;;;;;;12.70;50.94;100626.03;5024187;28;20046;-79
2022/02/24 05:35:28;;;;;;;16.43;11.60;;;;;;;12.64;50.80;100622.44;5016011;28;20064;-78
2022/02/24 05:37:56;;;;;;;22.27;11.97;;;;;;;12.61;50.90;100608.16;5010817;28;20054;-79
2022/02/24 05:40:24;;;;;;;18.67;9.70;;;;;;;12.69;50.88;100625.19;5002502;28;20050;-78
2022/02/24 05:42:51;;;;;;;17.40;10.10;;;;;;;12.66;50.96;100638.97;5011913;28;20038;-79
2022/02/24 05:45:18;;;;;;;23.27;10.40;;;;;;;12.64;50.98;100639.25;5011712;28;20399;-78
2022/02/24 05:47:45;;;;;;;23.23;10.90;;;;;;;12.60;51.14;100638.16;5009548;28;20056;-78
2022/02/24 05:50:12;;;;;;;20.63;9.70;;;;;;;12.45;51.53;100636.31;5006891;28;20058;-78
2022/02/24 05:52:39;;;;;;;19.40;10.53;;;;;;;12.38;51.44;100623.78;5022141;28;20046;-78
2022/02/24 05:55:06;;;;;;;14.97;9.03;;;;;;;12.42;51.11;100619.25;5008472;28;20538;-77
2022/02/24 05:57:33;;;;;;;18.67;10.40;;;;;;;12.28;51.44;100607.88;5013369;28;20057;-78
2022/02/24 06:00:00;;;;;;;19.17;10.80;;;;;;;12.33;51.32;100610.63;5006992;28;20042;-78
2022/02/24 06:02:27;;;;;;;16.27;10.00;;;;;;;12.31;51.31;100607.31;5042568;28;20041;-78
2022/02/24 06:04:54;;;;;;;19.40;9.93;;;;;;;11.81;51.60;100558.88;5032377;28;20490;-78
2022/02/24 06:07:21;;;;;;;20.93;11.17;;;;;;;12.20;51.47;100620.50;5018494;28;20054;-77
2022/02/24 06:09:49;;;;;;;19.07;10.23;;;;;;;12.18;51.57;100599.56;5019336;28;20049;-79
2022/02/24 06:12:16;;;;;;;18.27;10.13;;;;;;;12.20;51.06;100595.31;5012661;28;20080;-79
2022/02/24 06:14:43;;;;;;;17.07;9.93;;;;;;;12.36;51.06;100610.03;5030111;28;20054;-78
2022/02/24 06:17:11;;;;;;;19.67;9.77;;;;;;;12.41;51.26;100615.63;5013530;28;20049;-78
2022/02/24 06:19:39;;;;;;;22.00;11.13;;;;;;;12.43;51.22;100623.72;5010325;28;20058;-79
2022/02/24 06:22:06;;;;;;;21.13;11.00;;;;;;;12.36;51.02;100612.00;5014435;28;20100;-79
2022/02/24 06:24:33;;;;;;;18.17;10.67;;;;;;;12.49;50.96;100630.97;5004483;28;20502;-80
2022/02/24 06:27:00;;;;;;;20.17;10.77;;;;;;;12.51;50.98;100629.56;5022629;28;20123;-79
2022/02/24 06:29:27;;;;;;;21.97;10.03;;;;;;;12.30;50.84;100588.81;5017827;28;20058;-78
2022/02/24 06:31:54;;;;;;;27.33;11.50;;;;;;;12.56;50.83;100637.91;5014216;28;20050;-79
2022/02/24 06:34:21;;;;;;;21.27;11.90;;;;;;;12.58;50.82;100634.84;5014612;28;20073;-79
2022/02/24 06:36:48;;;;;;;24.10;10.97;;;;;;;12.56;50.91;100651.91;5018028;28;20081;-79
2022/02/24 06:39:16;;;;;;;26.63;11.57;;;;;;;12.51;51.03;100637.09;5014053;28;20145;-80
2022/02/24 06:41:42;;;;;;;18.83;10.23;;;;;;;12.57;50.70;100636.78;5011606;28;20054;-80
2022/02/24 06:44:09;;;;;;;19.53;10.37;;;;;;;12.44;50.84;100617.00;5002617;28;20137;-79
2022/02/24 06:46:37;;;;;;;21.10;9.83;;;;;;;12.42;50.75;100619.25;5005934;28;20465;-79
2022/02/24 06:49:04;;;;;;;21.00;10.43;;;;;;;12.39;50.73;100620.66;5011018;28;20073;-76
2022/02/24 06:51:31;;;;;;;15.90;9.00;;;;;;;12.46;50.63;100628.75;5012259;28;20426;-78
2022/02/24 06:54:00;;;;;;;18.90;10.95;;;;;;;12.41;50.76;100632.44;5010673;28;20108;-77
2022/02/24 06:56:27;;;;;;;15.33;9.40;;;;;;;12.52;50.59;100641.59;5017878;28;20042;-80
2022/02/24 06:58:54;;;;;;;19.30;10.37;;;;;;;12.25;50.71;100609.28;5014866;28;20073;-81
2022/02/24 07:01:21;;;;;;;19.40;11.07;;;;;;;12.32;50.94;100621.00;5013747;28;20425;-78
2022/02/24 07:03:48;;;;;;;24.03;10.50;;;;;;;12.48;50.81;100668.53;5013266;28;20042;-79
2022/02/24 07:06:15;;;;;;;19.07;10.77;;;;;;;12.47;50.97;100664.84;5023181;28;20137;-78
2022/02/24 07:08:42;;;;;;;22.20;11.00;;;;;;;12.25;50.97;100645.69;5014180;28;20053;-76
2022/02/24 07:11:10;;;;;;;18.33;10.63;;;;;;;12.30;51.09;100659.63;4997076;28;20072;-77
2022/02/24 07:13:37;;;;;;;19.00;11.17;;;;;;;12.21;51.02;100641.81;5009159;28;20054;-76
2022/02/24 07:16:23;;;;;;;20.37;11.60;;;;;;;12.19;51.05;100679.59;5002647;28;20054;-75
2022/02/24 07:18:50;;;;;;;22.50;12.97;;;;;;;11.98;51.78;100681.66;5001617;28;20050;-74
2022/02/24 07:21:17;;;;;;;25.13;13.00;;;;;;;11.88;52.11;100693.75;5000181;28;20133;-74
2022/02/24 07:23:44;;;;;;;23.13;12.40;;;;;;;11.36;52.61;100675.41;5017635;28;20061;-83
2022/02/24 07:26:11;;;;;;;23.67;13.90;;;;;;;11.25;53.12;100684.94;5030668;28;20050;-79
2022/02/24 07:28:40;;;;;;;29.20;15.10;;;;;;;11.19;53.38;100700.03;5041654;28;20088;-80
2022/02/24 07:31:09;;;;;;;25.20;14.30;;;;;;;10.96;53.73;100693.91;5009309;28;20065;-77
2022/02/24 07:33:38;;;;;;;27.23;13.43;;;;;;;10.95;54.31;100717.38;5011709;28;20624;-77
2022/02/24 07:36:05;;;;;;;25.07;13.63;;;;;;;10.82;54.42;100698.38;5012312;28;20050;-76
2022/02/24 07:38:32;;;;;;;38.93;14.30;;;;;;;10.98;54.50;100736.38;4979081;28;20077;-84
2022/02/24 07:40:59;;;;;;;26.00;13.57;;;;;;;11.11;54.17;100741.41;4997261;28;20092;-83
2022/02/24 07:43:27;;;;;;;23.17;14.43;;;;;;;11.25;54.16;100736.09;5014348;28;20133;-79
2022/02/24 07:45:57;;;;;;;26.00;12.93;;;;;;;11.39;53.70;100727.97;5013536;28;20050;-78
2022/02/24 07:48:24;;;;;;;26.25;14.20;;;;;;;11.45;53.47;100726.81;5009161;28;20100;-78
2022/02/24 07:50:51;;;;;;;21.43;12.07;;;;;;;11.38;53.43;100707.56;5013473;28;20413;-84
2022/02/24 07:53:18;;;;;;;23.17;13.13;;;;;;;11.31;53.74;100700.56;5010973;28;20100;-76
2022/02/24 07:55:45;;;;;;;23.73;13.23;;;;;;;11.24;53.56;100672.91;5008327;28;20046;-73
2022/02/24 07:58:12;;;;;;;20.17;12.23;;;;;;;11.56;53.55;100719.28;5013096;28;20082;-79
2022/02/24 08:00:39;;;;;;;43.20;21.57;;;;;;;11.60;53.20;100706.41;5020854;28;20054;-80
2022/02/24 08:03:06;;;;;;;24.33;12.63;;;;;;;12.00;52.37;100735.38;5011366;28;20529;-81
2022/02/24 08:05:34;;;;;;;22.53;14.07;;;;;;;12.09;52.38;100734.50;4995268;28;20090;-80
2022/02/24 08:08:00;;;;;;;25.17;13.50;;;;;;;12.17;52.21;100730.31;5011744;28;20074;-81
2022/02/24 08:10:27;;;;;;;27.83;13.47;;;;;;;12.17;52.25;100735.03;4997834;28;20046;-81
2022/02/24 08:12:54;;;;;;;28.17;12.77;;;;;;;12.13;52.31;100734.78;4997425;28;20467;-80
2022/02/24 08:15:22;;;;;;;27.57;13.83;;;;;;;11.70;52.35;100669.16;4995038;28;20105;-80
2022/02/24 08:17:51;;;;;;;25.17;13.00;;;;;;;11.89;52.43;100709.41;5004102;28;20073;-80
2022/02/24 08:20:22;;;;;;;59.47;26.17;;;;;;;12.10;52.63;100757.72;5016263;28;20088;-80
2022/02/24 08:22:49;;;;;;;24.93;14.40;;;;;;;11.94;52.34;100709.41;5016681;28;20073;-81
2022/02/24 08:25:18;;;;;;;30.83;14.10;;;;;;;12.24;52.48;100746.75;5015772;28;20069;-82
2022/02/24 08:27:47;;;;;;;24.17;13.93;;;;;;;12.29;52.39;100743.94;5016119;28;20054;-81
2022/02/24 08:30:17;;;;;;;31.47;15.30;;;;;;;12.30;52.32;100740.00;5015972;28;20084;-81
2022/02/24 08:32:48;;;;;;;27.30;13.97;;;;;;;12.37;52.48;100746.13;5017078;28;20106;-80
2022/02/24 08:35:16;;;;;;;21.63;12.50;;;;;;;12.39;52.01;100732.69;5017139;28;20061;-80
2022/02/24 08:37:47;;;;;;;23.67;13.17;;;;;;;12.05;51.87;100659.81;5015490;28;20050;-81
2022/02/24 08:40:17;;;;;;;23.97;12.83;;;;;;;12.68;51.74;100760.81;5016908;28;20068;-80
2022/02/24 08:42:45;;;;;;;;;;;;;;;12.60;51.95;100755.00;5016776;28;20096;-81
2022/02/24 08:45:13;;;;;;;29.17;13.23;;;;;;;12.46;51.82;100733.22;5031688;28;19929;-81
2022/02/24 08:47:41;;;;;;;19.13;10.97;;;;;;;12.60;52.27;100757.78;5015308;28;20425;-81
2022/02/24 08:50:11;;;;;;;26.50;12.43;;;;;;;12.68;52.12;100758.00;5016517;28;20542;-81
2022/02/24 08:52:59;;;;;;;;;;;;;;;12.67;51.91;100761.94;5003126;28;20113;-81
2022/02/24 08:55:26;;;;;;;28.60;13.67;;;;;;;12.72;51.75;100769.50;5012754;28;19922;-79
2022/02/24 08:57:53;;;;;;;23.47;10.00;;;;;;;12.47;52.10;100757.28;5008831;28;20054;-79
2022/02/24 09:00:26;;;;;;;26.00;9.37;;;;;;;12.35;52.55;100768.00;5024173;28;20069;-79
2022/02/24 09:02:53;;;;;;;18.90;11.40;;;;;;;12.13;52.63;100747.94;5031386;28;20026;-80
2022/02/24 09:05:20;;;;;;;23.20;12.90;;;;;;;12.34;52.57;100774.72;5023036;28;20073;-80
2022/02/24 09:07:47;;;;;;;23.30;11.83;;;;;;;12.33;52.97;100776.69;5028783;28;20046;-85
2022/02/24 09:10:27;;;;;;;24.13;11.90;;;;;;;12.26;53.21;100794.91;5000122;28;20073;-78
2022/02/24 09:12:55;;;;;;;11.77;6.37;;;;;;;12.04;53.31;100770.09;4994563;28;20511;-78
2022/02/24 09:15:22;;;;;;;18.10;9.47;;;;;;;12.02;53.99;100787.16;4998413;28;20473;-79
2022/02/24 09:17:49;;;;;;;18.97;9.87;;;;;;;11.97;53.98;100781.59;5004575;28;20077;-77
2022/02/24 09:20:16;;;;;;;18.17;8.37;;;;;;;12.13;53.40;100778.72;5003484;28;20112;-77
2022/02/24 09:22:43;;;;;;;21.47;9.87;;;;;;;11.87;53.67;100736.00;4997585;28;20054;-78
2022/02/24 09:25:10;;;;;;;25.37;12.53;;;;;;;12.25;53.42;100779.25;5012636;28;20083;-76
2022/02/24 09:27:37;;;;;;;15.03;8.67;;;;;;;12.35;53.39;100773.63;5011470;28;20050;-76
2022/02/24 09:30:05;;;;;;;20.70;10.70;;;;;;;12.35;53.35;100767.19;5008302;28;20046;-83
2022/02/24 09:32:34;;;;;;;22.03;12.03;;;;;;;12.51;53.16;100775.22;5008414;28;20054;-83
2022/02/24 09:35:02;;;;;;;25.15;14.55;;;;;;;12.48;53.07;100769.34;5007649;28;20112;-84
2022/02/24 09:37:34;;;;;;;16.00;9.63;;;;;;;12.37;53.06;100762.94;5009546;28;20481;-81
2022/02/24 09:40:07;;;;;;;16.77;11.80;;;;;;;12.62;53.12;100798.41;5006407;28;20081;-84
2022/02/24 09:42:54;;;;;;;30.23;12.63;;;;;;;12.56;52.98;100777.97;5015790;28;20050;-85
2022/02/24 09:45:21;;;;;;;22.23;12.07;;;;;;;12.70;52.86;100785.75;4991465;28;20128;-81
2022/02/24 09:47:51;;;;;;;19.27;11.60;;;;;;;13.16;52.42;100788.22;5009579;28;20482;-81
2022/02/24 09:50:18;;;;;;;22.13;11.85;;;;;;;13.45;51.91;100785.50;5009458;28;20050;-83
2022/02/24 09:52:45;;;;;;;21.90;12.43;;;;;;;13.99;51.59;100792.84;4998982;28;20125;-84
2022/02/24 09:55:12;;;;;;;26.40;13.83;;;;;;;14.26;51.34;100772.56;5001485;28;20084;-84
2022/02/24 09:57:39;;;;;;;28.80;17.67;;;;;;;14.76;51.29;100756.16;5010261;28;20049;-85
2022/02/24 10:00:07;;;;;;;28.47;15.57;;;;;;;15.31;51.04;100794.97;5005374;28;20058;-86
2022/02/24 10:02:35;;;;;;;30.97;14.93;;;;;;;15.53;50.55;100806.44;5007768;28;20166;-87
2022/02/24 10:05:09;;;;;;;28.73;15.43;;;;;;;15.56;50.48;100799.34;5004174;28;20056;-83
2022/02/24 10:07:41;;;;;;;37.37;17.90;;;;;;;15.61;50.41;100810.50;5002430;28;20053;-77
2022/02/24 10:10:30;;;;;;;37.83;17.63;;;;;;;15.59;50.34;100818.44;4998498;28;20137;-79
2022/02/24 10:13:12;;;;;;;33.50;16.58;;;;;;;15.43;50.47;100809.41;5004255;28;20057;-79
2022/02/24 10:15:42;;;;;;;24.77;15.80;;;;;;;15.46;50.11;100827.69;5011279;28;20144;-84
2022/02/24 10:18:15;;;;;;;35.27;17.70;;;;;;;15.43;50.01;100833.91;5005708;28;20062;-83
2022/02/24 10:20:49;;;;;;;32.03;17.37;;;;;;;15.49;50.01;100870.13;5002037;28;20097;-79
2022/02/24 10:23:18;;;;;;;32.00;17.77;;;;;;;15.31;49.86;100843.66;5004690;28;20045;-77
2022/02/24 10:25:50;;;;;;;32.53;17.20;;;;;;;15.37;49.97;100836.78;5005549;28;20058;-78
2022/02/24 10:28:49;;;;;;;32.23;16.53;;;;;;;15.50;49.64;100848.44;5003072;28;20589;-81
2022/02/24 10:31:26;;;;;;;37.13;17.10;;;;;;;15.45;49.57;100848.50;5002475;28;20077;-81
2022/02/24 10:34:03;;;;;;;31.20;17.43;;;;;;;15.38;49.76;100835.69;5024743;28;20052;-83
2022/02/24 10:36:34;;;;;;;36.63;18.63;;;;;;;15.30;49.53;100810.19;5008462;28;20092;-83
2022/02/24 10:39:03;;;;;;;31.97;17.80;;;;;;;15.41;49.62;100829.41;5006788;28;20073;-83
2022/02/24 10:41:36;;;;;;;31.90;17.70;;;;;;;15.39;49.64;100831.72;5007607;28;20057;-82
2022/02/24 10:44:35;;;;;;;37.03;19.00;;;;;;;15.27;49.63;100814.44;5007170;28;20053;-83
2022/02/24 10:47:07;;;;;;;33.97;19.20;;;;;;;15.28;49.96;100824.59;4975939;28;20081;-84
2022/02/24 10:49:40;;;;;;;35.50;20.63;;;;;;;15.24;49.64;100822.66;5028740;28;20058;-83
2022/02/24 10:52:12;;;;;;;34.33;19.30;;;;;;;15.21;49.63;100804.41;4996447;28;20057;-83
2022/02/24 10:54:40;;;;;;;37.10;20.27;;;;;;;15.21;49.69;100821.28;5006809;28;20042;-87
2022/02/24 10:57:33;;;;;;;36.10;22.37;;;;;;;15.20;49.68;100814.00;5005439;28;20053;-83
2022/02/24 11:00:01;;;;;;;37.37;20.93;;;;;;;15.29;49.60;100823.44;5009759;28;20144;-88
2022/02/24 11:02:28;;;;;;;39.73;20.90;;;;;;;15.28;49.77;100812.47;5001065;28;20049;-90
2022/02/24 11:04:56;;;;;;;35.87;19.20;;;;;;;15.23;49.62;100804.13;5002176;28;20046;-76
2022/02/24 11:07:23;;;;;;;41.90;20.20;;;;;;;15.14;49.89;100775.84;5005795;28;20518;-78
2022/02/24 11:09:56;;;;;;;35.47;21.70;;;;;;;15.34;49.85;100794.38;5004448;28;20057;-78
2022/02/24 11:12:29;;;;;;;39.70;18.50;;;;;;;15.35;49.59;100781.97;5005650;28;21006;-86
2022/02/24 11:14:57;;;;;;;39.33;18.23;;;;;;;15.65;49.32;100817.19;5009142;28;20096;-86
2022/02/24 11:17:24;;;;;;;33.37;17.47;;;;;;;15.31;49.17;100747.97;5009018;28;20054;-86